createdAt,value
2019-01-19T00:02:31.080Z,96560.35
2019-01-19T00:05:53.132Z,96563.63
2019-01-19T00:08:32.491Z,96562.77
2019-01-19T00:11:55.749Z,96564.09
2019-01-19T00:14:33.594Z,96564.16
2019-01-19T00:17:32.369Z,96561.84
2019-01-19T00:20:35.390Z,96559.59
2019-01-19T00:23:19.501Z,96552.13
2019-01-19T00:26:47.650Z,96551.53
2019-01-19T00:29:48.053Z,96559.50
2019-01-19T00:33:04.430Z,96549.14
2019-01-19T00:36:03.700Z,96545.52
2019-01-19T00:39:22.801Z,96546.98
2019-01-19T00:42:20.039Z,96547.31
2019-01-19T00:45:00.389Z,96544.91
2019-01-19T00:47:46.430Z,96544.23
2019-01-19T00:50:39.852Z,96539.89
2019-01-19T00:53:19.068Z,96546.63
2019-01-19T00:56:35.754Z,96548.05
2019-01-19T00:59:15.764Z,96551.91
2019-01-19T01:02:49.852Z,96549.54
2019-01-19T01:05:00.914Z,96547.87
2019-01-19T01:08:10.423Z,96548.23
2019-01-19T01:11:16.383Z,96547.47
2019-01-19T01:14:22.484Z,96540.27
2019-01-19T01:17:23.990Z,96541.20
2019-01-19T01:20:32.924Z,96546.40
2019-01-19T01:23:35.118Z,96546.46
2019-01-19T01:26:53.283Z,96545.10
2019-01-19T01:29:51.463Z,96537.18
2019-01-19T01:32:44.688Z,96537.90
2019-01-19T01:35:45.732Z,96538.54
2019-01-19T01:38:42.484Z,96539.91
2019-01-19T01:42:08.296Z,96539.11
2019-01-19T01:45:09.493Z,96532.03
2019-01-19T01:48:18.290Z,96538.23
2019-01-19T01:51:22.092Z,96535.35
2019-01-19T01:54:19.896Z,96532.29
2019-01-19T01:56:49.182Z,96532.92
2019-01-19T01:59:24.524Z,96530.56
2019-01-19T02:02:24.090Z,96530.67
2019-01-19T02:05:40.448Z,96533.16
2019-01-19T02:08:28.019Z,96533.59
2019-01-19T02:11:38.833Z,96532.28
2019-01-19T02:14:46.031Z,96524.09
2019-01-19T02:17:50.941Z,96517.13
2019-01-19T02:20:35.775Z,96520.70
2019-01-19T02:23:45.662Z,96523.32
2019-01-19T02:27:00.821Z,96521.80
2019-01-19T02:30:10.818Z,96517.87
2019-01-19T02:33:16.024Z,96514.11
2019-01-19T02:36:00.552Z,96522.11
2019-01-19T02:39:30.192Z,96516.26
2019-01-19T02:42:32.170Z,96510.59
2019-01-19T02:45:56.172Z,96508.22
2019-01-19T02:49:04.035Z,96502.82
2019-01-19T02:52:20.795Z,96499.81
2019-01-19T02:55:21.511Z,96498.70
2019-01-19T02:58:29.708Z,96493.72
2019-01-19T03:01:36.012Z,96488.73
2019-01-19T03:04:41.859Z,96492.83
2019-01-19T03:08:03.955Z,96490.32
2019-01-19T03:11:02.036Z,96488.94
2019-01-19T03:14:11.390Z,96483.08
2019-01-19T03:17:23.737Z,96491.32
2019-01-19T03:20:30.198Z,96488.06
2019-01-19T03:23:36.251Z,96483.50
2019-01-19T03:26:19.880Z,96480.02
2019-01-19T03:29:24.280Z,96480.02
2019-01-19T03:32:43.568Z,96479.67
2019-01-19T03:35:55.452Z,96478.73
2019-01-19T03:38:54.212Z,96478.05
2019-01-19T03:42:00.695Z,96471.88
2019-01-19T03:45:00.601Z,96473.36
2019-01-19T03:48:01.234Z,96469.09
2019-01-19T03:51:10.349Z,96462.66
2019-01-19T03:54:07.641Z,96462.86
2019-01-19T03:57:26.997Z,96460.75
2019-01-19T04:00:33.185Z,96460.84
2019-01-19T04:03:43.321Z,96458.05
2019-01-19T04:06:33.660Z,96458.09
2019-01-19T04:09:32.349Z,96451.73
2019-01-19T04:12:30.430Z,96454.05
2019-01-19T04:15:43.279Z,96452.49
2019-01-19T04:18:37.181Z,96449.53
2019-01-19T04:21:48.250Z,96449.95
2019-01-19T04:24:30.397Z,96447.81
2019-01-19T04:27:08.363Z,96445.92
2019-01-19T04:29:37.495Z,96450.73
2019-01-19T04:32:06.613Z,96447.24
2019-01-19T04:34:35.813Z,96449.59
2019-01-19T04:37:05.866Z,96447.20
2019-01-19T04:39:43.677Z,96446.45
2019-01-19T04:42:13.390Z,96440.08
2019-01-19T04:44:44.816Z,96438.38
2019-01-19T04:47:19.816Z,96437.72
2019-01-19T04:49:49.007Z,96439.89
2019-01-19T04:52:19.822Z,96434.91
2019-01-19T04:54:49.040Z,96429.25
2019-01-19T04:57:18.189Z,96429.83
2019-01-19T04:59:48.535Z,96433.47
2019-01-19T05:02:17.601Z,96436.35
2019-01-19T05:04:46.731Z,96428.25
2019-01-19T05:07:25.434Z,96428.05
2019-01-19T05:09:57.797Z,96421.50
2019-01-19T05:12:28.021Z,96424.47
2019-01-19T05:14:59.714Z,96425.17
2019-01-19T05:17:28.837Z,96421.29
2019-01-19T05:19:59.574Z,96420.85
2019-01-19T05:22:28.759Z,96419.81
2019-01-19T05:24:57.887Z,96414.34
2019-01-19T05:27:28.362Z,96410.98
2019-01-19T05:29:59.172Z,96417.85
2019-01-19T05:32:28.256Z,96416.03
2019-01-19T05:34:57.987Z,96410.72
2019-01-19T05:37:27.130Z,96414.51
2019-01-19T05:39:56.276Z,94957.14
2019-01-19T05:42:25.417Z,96410.20
2019-01-19T05:44:57.348Z,96408.24
2019-01-19T05:47:27.724Z,96411.73
2019-01-19T05:50:01.233Z,96404.28
2019-01-19T05:52:35.855Z,96407.33
2019-01-19T05:55:08.614Z,96408.16
2019-01-19T05:57:37.366Z,96407.06
2019-01-19T06:00:24.376Z,96406.90
2019-01-19T06:02:59.647Z,96409.38
2019-01-19T06:05:28.857Z,96010.22
2019-01-19T06:07:58.055Z,96409.51
2019-01-19T06:10:27.292Z,96413.53
2019-01-19T06:12:56.758Z,96405.72
2019-01-19T06:15:25.975Z,96398.02
2019-01-19T06:17:55.128Z,96399.62
2019-01-19T06:20:24.269Z,96393.48
2019-01-19T06:22:55.068Z,96397.33
2019-01-19T06:25:24.316Z,96397.89
2019-01-19T06:27:53.651Z,96391.52
2019-01-19T06:30:26.198Z,96390.32
2019-01-19T06:32:58.383Z,96391.09
2019-01-19T06:35:30.756Z,96393.24
2019-01-19T06:37:59.625Z,96398.20
2019-01-19T06:40:28.725Z,96396.44
2019-01-19T06:42:57.894Z,96390.55
2019-01-19T06:45:30.688Z,96389.14
2019-01-19T06:47:59.863Z,96384.69
2019-01-19T06:50:29.243Z,96388.80
2019-01-19T06:52:59.488Z,96393.82
2019-01-19T06:55:31.443Z,96392.62
2019-01-19T06:58:00.951Z,96390.27
2019-01-19T07:00:30.418Z,96393.45
2019-01-19T07:03:02.010Z,96391.87
2019-01-19T07:05:33.103Z,96390.04
2019-01-19T07:08:02.039Z,96391.27
2019-01-19T07:10:31.181Z,96397.14
2019-01-19T07:13:02.170Z,96395.16
2019-01-19T07:15:31.260Z,96423.38
2019-01-19T07:18:03.564Z,96394.73
2019-01-19T07:20:38.891Z,96399.29
2019-01-19T07:23:03.699Z,96391.44
2019-01-19T07:25:32.818Z,96394.77
2019-01-19T07:28:01.938Z,96388.05
2019-01-19T07:30:32.767Z,96392.84
2019-01-19T07:33:04.887Z,96396.41
2019-01-19T07:35:34.010Z,96352.75
2019-01-19T07:38:03.134Z,96390.14
2019-01-19T07:40:32.875Z,96395.48
2019-01-19T07:43:10.638Z,96393.89
2019-01-19T07:45:41.306Z,96399.20
2019-01-19T07:48:10.798Z,96393.82
2019-01-19T07:50:42.396Z,96392.09
2019-01-19T07:53:11.662Z,96397.55
2019-01-19T07:55:40.955Z,96392.06
2019-01-19T07:58:12.566Z,96397.10
2019-01-19T08:00:41.709Z,96403.37
2019-01-19T08:03:11.367Z,96399.18
2019-01-19T08:05:40.500Z,96401.40
2019-01-19T08:08:12.837Z,96424.41
2019-01-19T08:10:41.958Z,96401.72
2019-01-19T08:13:11.276Z,96399.98
2019-01-19T08:15:40.532Z,96399.13
2019-01-19T08:18:10.366Z,96404.46
2019-01-19T08:20:40.575Z,96404.47
2019-01-19T08:23:12.695Z,96409.25
2019-01-19T08:25:42.148Z,96412.41
2019-01-19T08:28:11.295Z,96412.77
2019-01-19T08:30:40.445Z,96414.98
2019-01-19T08:33:09.604Z,96411.20
2019-01-19T08:35:40.932Z,96413.25
2019-01-19T08:38:10.044Z,96407.53
2019-01-19T08:40:39.567Z,96410.11
2019-01-19T08:43:23.897Z,96404.13
2019-01-19T08:45:53.224Z,96408.45
2019-01-19T08:48:27.825Z,96407.54
2019-01-19T08:50:57.347Z,96397.67
2019-01-19T08:53:28.143Z,96401.16
2019-01-19T08:55:58.966Z,96396.37
2019-01-19T08:58:28.812Z,96395.81
2019-01-19T09:01:01.066Z,96391.06
2019-01-19T09:03:30.217Z,96396.37
2019-01-19T09:05:59.349Z,96397.30
2019-01-19T09:08:28.626Z,96392.88
2019-01-19T09:11:01.077Z,96393.49
2019-01-19T09:13:38.463Z,96396.81
2019-01-19T09:16:11.567Z,96398.72
2019-01-19T09:18:41.803Z,96394.34
2019-01-19T09:21:10.879Z,96394.63
2019-01-19T09:23:47.901Z,96391.48
2019-01-19T09:26:17.959Z,96391.44
2019-01-19T09:28:47.442Z,96389.04
2019-01-19T09:31:16.912Z,96386.89
2019-01-19T09:33:46.031Z,96387.11
2019-01-19T09:36:15.151Z,96385.42
2019-01-19T09:38:44.365Z,96390.27
2019-01-19T09:41:14.768Z,96394.72
2019-01-19T09:43:43.897Z,96390.11
2019-01-19T09:46:18.621Z,96385.59
2019-01-19T09:48:47.739Z,96387.50
2019-01-19T09:51:18.660Z,96384.80
2019-01-19T09:53:49.387Z,96379.59
2019-01-19T09:56:18.633Z,96385.33
2019-01-19T09:58:49.129Z,96381.03
2019-01-19T10:01:18.337Z,96386.75
2019-01-19T10:03:53.142Z,96386.18
2019-01-19T10:06:25.677Z,96383.96
2019-01-19T10:08:54.809Z,96388.24
2019-01-19T10:11:24.011Z,96387.50
2019-01-19T10:13:54.298Z,96386.16
2019-01-19T10:16:29.364Z,96379.25
2019-01-19T10:19:04.085Z,96375.02
2019-01-19T10:21:33.578Z,96370.51
2019-01-19T10:24:05.301Z,96377.75
2019-01-19T10:26:34.421Z,96370.92
2019-01-19T10:29:07.462Z,96370.21
2019-01-19T10:31:36.567Z,96369.19
2019-01-19T10:34:05.683Z,96368.17
2019-01-19T10:36:34.812Z,96372.23
2019-01-19T10:39:05.565Z,96368.16
2019-01-19T10:41:40.810Z,96370.33
2019-01-19T10:44:10.097Z,96371.84
2019-01-19T10:46:39.197Z,96369.83
2019-01-19T10:49:13.906Z,96363.69
2019-01-19T10:51:46.241Z,96364.97
2019-01-19T10:54:16.342Z,96360.36
2019-01-19T10:56:45.464Z,96359.92
2019-01-19T10:59:14.615Z,96363.67
2019-01-19T11:01:46.452Z,96351.04
2019-01-19T11:04:15.550Z,96350.75
2019-01-19T11:06:46.253Z,96350.41
2019-01-19T11:09:21.229Z,96346.28
2019-01-19T11:11:50.381Z,96338.38
2019-01-19T11:14:21.114Z,96337.53
2019-01-19T11:16:53.200Z,96333.39
2019-01-19T11:19:25.518Z,96338.75
2019-01-19T11:21:55.265Z,96333.49
2019-01-19T11:24:24.700Z,96328.86
2019-01-19T11:26:54.133Z,96330.97
2019-01-19T11:29:23.234Z,96321.23
2019-01-19T11:31:52.708Z,96319.87
2019-01-19T11:34:21.816Z,96320.94
2019-01-19T11:36:50.949Z,96316.31
2019-01-19T11:39:20.091Z,96309.98
2019-01-19T11:41:50.458Z,95967.27
2019-01-19T11:44:21.335Z,96308.14
2019-01-19T11:46:54.604Z,96302.89
2019-01-19T11:49:23.727Z,96305.06
2019-01-19T11:51:54.388Z,96302.69
2019-01-19T11:54:24.670Z,96302.16
2019-01-19T11:56:59.860Z,96306.28
2019-01-19T11:59:30.717Z,96300.87
2019-01-19T12:01:59.983Z,96301.44
2019-01-19T12:04:29.087Z,96296.13
2019-01-19T12:07:00.766Z,96309.34
2019-01-19T12:09:33.967Z,96302.52
2019-01-19T12:12:03.771Z,96305.85
2019-01-19T12:14:32.895Z,96299.88
2019-01-19T12:17:04.317Z,96288.89
2019-01-19T12:19:34.994Z,96289.45
2019-01-19T12:22:05.581Z,96284.08
2019-01-19T12:24:37.128Z,96286.35
2019-01-19T12:27:06.350Z,96279.86
2019-01-19T12:29:35.500Z,96275.71
2019-01-19T12:32:07.627Z,96278.62
2019-01-19T12:34:36.787Z,96277.00
2019-01-19T12:37:05.908Z,96270.57
2019-01-19T12:39:36.953Z,96274.42
2019-01-19T12:42:08.358Z,96276.97
2019-01-19T12:44:43.610Z,96281.81
2019-01-19T12:47:13.119Z,96268.25
2019-01-19T12:49:43.835Z,96269.19
2019-01-19T12:52:14.066Z,96268.55
2019-01-19T12:54:44.235Z,96268.44
2019-01-19T12:57:18.601Z,96258.87
2019-01-19T12:59:53.672Z,96262.87
2019-01-19T13:02:22.927Z,96258.52
2019-01-19T13:04:52.093Z,96251.41
2019-01-19T13:07:23.672Z,95901.75
2019-01-19T13:10:01.462Z,96243.29
2019-01-19T13:12:53.302Z,96244.18
2019-01-19T13:16:14.355Z,96238.70
2019-01-19T13:19:02.764Z,96235.16
2019-01-19T13:22:11.923Z,96236.11
2019-01-19T13:25:09.595Z,96234.10
2019-01-19T13:28:33.140Z,96232.64
2019-01-19T13:31:56.652Z,96223.36
2019-01-19T13:35:22.201Z,96213.05
2019-01-19T13:38:14.130Z,96212.28
2019-01-19T13:41:27.371Z,96219.77
2019-01-19T13:44:41.952Z,96214.63
2019-01-19T13:48:08.285Z,96212.66
2019-01-19T13:51:17.883Z,96224.89
2019-01-19T13:54:58.538Z,96221.12
2019-01-19T13:57:40.753Z,96215.02
2019-01-19T14:00:54.225Z,96213.66
2019-01-19T14:03:46.942Z,96212.18
2019-01-19T14:07:14.650Z,96251.09
2019-01-19T14:10:24.811Z,96209.40
2019-01-19T14:13:43.473Z,96205.34
2019-01-19T14:16:39.952Z,96198.67
2019-01-19T14:19:58.008Z,96200.13
2019-01-19T14:23:14.103Z,96196.39
2019-01-19T14:26:18.319Z,96199.69
2019-01-19T14:29:47.653Z,96190.00
2019-01-19T14:33:04.995Z,96192.08
2019-01-19T14:36:37.844Z,96191.29
2019-01-19T14:39:35.146Z,96185.47
2019-01-19T14:42:48.094Z,96184.66
2019-01-19T14:45:54.611Z,96186.36
2019-01-19T14:48:52.884Z,96192.81
2019-01-19T14:52:15.809Z,96189.50
2019-01-19T14:55:29.955Z,96138.21
2019-01-19T14:58:20.510Z,96182.42
2019-01-19T15:01:20.212Z,96183.49
2019-01-19T15:04:25.020Z,96181.48
2019-01-19T15:07:33.885Z,96174.19
2019-01-19T15:10:38.154Z,96170.50
2019-01-19T15:13:48.241Z,96165.86
2019-01-19T15:16:48.576Z,96161.91
2019-01-19T15:19:55.612Z,96161.85
2019-01-19T15:23:03.666Z,96159.14
2019-01-19T15:26:23.071Z,96162.91
2019-01-19T15:29:07.466Z,96160.89
2019-01-19T15:32:14.686Z,96153.31
2019-01-19T15:35:21.341Z,96156.63
2019-01-19T15:38:05.884Z,96150.88
2019-01-19T15:41:11.407Z,96155.88
2019-01-19T15:44:13.591Z,96162.88
2019-01-19T15:47:29.810Z,96161.52
2019-01-19T15:50:35.559Z,96163.91
2019-01-19T15:53:41.258Z,96157.97
2019-01-19T15:56:48.742Z,96159.87
2019-01-19T16:00:09.619Z,96155.32
2019-01-19T16:03:17.776Z,96155.90
2019-01-19T16:06:20.843Z,96149.01
2019-01-19T16:09:18.283Z,96151.74
2019-01-19T16:12:00.180Z,96149.19
2019-01-19T16:15:14.260Z,96150.63
2019-01-19T16:18:19.370Z,96154.59
2019-01-19T16:21:19.230Z,96146.16
2019-01-19T16:24:39.033Z,96149.28
2019-01-19T16:28:04.537Z,96171.42
2019-01-19T16:31:06.541Z,96139.28
2019-01-19T16:34:13.549Z,96139.61
2019-01-19T16:37:11.005Z,96135.19
2019-01-19T16:40:25.984Z,96138.25
2019-01-19T16:43:18.680Z,96135.58
2019-01-19T16:46:21.258Z,96126.29
2019-01-19T16:49:17.527Z,96133.70
2019-01-19T16:52:28.095Z,96134.04
2019-01-19T16:55:23.803Z,96131.81
2019-01-19T16:58:40.226Z,96132.81
2019-01-19T17:01:24.440Z,96128.97
2019-01-19T17:04:22.418Z,96124.19
2019-01-19T17:07:35.420Z,96124.79
2019-01-19T17:10:37.603Z,96122.75
2019-01-19T17:13:36.100Z,96118.67
2019-01-19T17:16:41.198Z,96128.20
2019-01-19T17:19:39.377Z,96126.25
2019-01-19T17:22:30.105Z,96123.11
2019-01-19T17:25:24.206Z,96119.46
2019-01-19T17:28:15.055Z,96124.75
2019-01-19T17:31:11.159Z,96120.14
2019-01-19T17:34:04.776Z,96122.45
2019-01-19T17:37:07.786Z,96152.98
2019-01-19T17:40:24.062Z,96116.07
2019-01-19T17:43:26.346Z,96113.91
2019-01-19T17:46:27.578Z,96120.70
2019-01-19T17:49:13.457Z,96114.77
2019-01-19T17:52:14.642Z,96119.78
2019-01-19T17:55:17.547Z,96113.53
2019-01-19T17:58:17.670Z,96119.61
2019-01-19T18:01:23.651Z,96129.05
2019-01-19T18:04:25.991Z,96120.03
2019-01-19T18:07:27.262Z,96122.13
2019-01-19T18:10:25.518Z,96119.72
2019-01-19T18:13:17.353Z,96116.42
2019-01-19T18:15:56.625Z,96115.31
2019-01-19T18:18:52.457Z,96111.19
2019-01-19T18:21:50.582Z,96110.86
2019-01-19T18:24:40.211Z,96111.91
2019-01-19T18:27:38.345Z,96108.44
2019-01-19T18:30:37.479Z,96112.21
2019-01-19T18:33:31.858Z,96101.74
2019-01-19T18:36:31.712Z,96097.73
2019-01-19T18:39:34.335Z,96101.41
2019-01-19T18:42:34.508Z,96094.23
2019-01-19T18:45:26.368Z,96098.96
2019-01-19T18:48:51.525Z,96100.19
2019-01-19T18:52:10.029Z,96093.27
2019-01-19T18:55:10.581Z,96095.81
2019-01-19T18:58:17.661Z,96095.38
2019-01-19T19:01:19.167Z,96088.91
2019-01-19T19:04:25.405Z,96090.96
2019-01-19T19:07:10.711Z,96088.08
2019-01-19T19:10:06.531Z,96095.67
2019-01-19T19:13:19.295Z,96095.52
2019-01-19T19:16:13.736Z,96103.23
2019-01-19T19:19:20.863Z,96093.13
2019-01-19T19:22:28.069Z,96092.00
2019-01-19T19:25:32.842Z,96088.27
2019-01-19T19:28:41.779Z,96089.09
2019-01-19T19:31:36.674Z,96091.03
2019-01-19T19:34:58.987Z,96084.95
2019-01-19T19:38:10.760Z,96081.98
2019-01-19T19:41:04.970Z,96087.69
2019-01-19T19:44:13.877Z,96006.19
2019-01-19T19:47:12.219Z,96076.95
2019-01-19T19:50:02.024Z,96087.12
2019-01-19T19:52:32.376Z,96086.45
2019-01-19T19:55:02.660Z,96082.58
2019-01-19T19:57:31.932Z,96083.41
2019-01-19T20:00:09.162Z,96087.44
2019-01-19T20:02:38.376Z,96090.36
2019-01-19T20:05:08.070Z,94604.47
2019-01-19T20:07:41.900Z,96088.66
2019-01-19T20:10:17.061Z,96086.84
2019-01-19T20:12:48.440Z,96092.56
2019-01-19T20:15:17.624Z,96088.62
2019-01-19T20:17:52.696Z,96089.58
2019-01-19T20:20:22.987Z,96083.23
2019-01-19T20:22:52.112Z,96083.23
2019-01-19T20:25:23.846Z,96085.39
2019-01-19T20:27:53.071Z,96084.52
2019-01-19T20:30:22.414Z,96086.27
2019-01-19T20:32:51.943Z,96085.61
2019-01-19T20:35:21.142Z,96088.21
2019-01-19T20:37:51.016Z,96087.87
2019-01-19T20:40:24.280Z,96085.00
2019-01-19T20:42:51.200Z,96081.02
2019-01-19T20:45:20.301Z,96080.46
2019-01-19T20:47:49.435Z,96079.44
2019-01-19T20:50:18.651Z,96079.45
2019-01-19T20:52:48.929Z,96077.38
2019-01-19T20:55:22.287Z,96077.94
2019-01-19T20:58:00.639Z,96079.25
2019-01-19T21:00:29.773Z,96079.18
2019-01-19T21:03:00.637Z,96075.86
2019-01-19T21:05:30.206Z,96074.93
2019-01-19T21:08:01.135Z,96073.81
2019-01-19T21:10:31.994Z,96078.55
2019-01-19T21:13:03.544Z,96077.02
2019-01-19T21:15:32.800Z,96071.47
2019-01-19T21:18:05.394Z,96076.00
2019-01-19T21:20:35.738Z,96075.67
2019-01-19T21:23:14.156Z,96074.07
2019-01-19T21:25:46.288Z,96070.66
2019-01-19T21:28:15.426Z,96072.95
2019-01-19T21:30:46.213Z,96064.98
2019-01-19T21:33:15.513Z,96065.82
2019-01-19T21:35:44.659Z,96070.11
2019-01-19T21:38:15.911Z,96064.72
2019-01-19T21:40:48.426Z,96063.83
2019-01-19T21:43:20.479Z,96057.92
2019-01-19T21:45:55.752Z,96049.53
2019-01-19T21:48:24.899Z,96058.91
2019-01-19T21:50:54.352Z,96052.33
2019-01-19T21:53:23.673Z,96058.29
2019-01-19T21:55:52.781Z,96057.93
2019-01-19T21:58:22.111Z,96060.11
2019-01-19T22:00:51.249Z,96053.73
2019-01-19T22:03:21.227Z,96053.42
2019-01-19T22:05:52.635Z,96052.61
2019-01-19T22:08:28.826Z,96056.53
2019-01-19T22:10:57.928Z,96050.53
2019-01-19T22:13:27.034Z,96051.32
2019-01-19T22:15:56.273Z,96050.33
2019-01-19T22:18:25.490Z,96048.63
2019-01-19T22:20:54.687Z,96042.86
2019-01-19T22:23:25.925Z,96049.62
2019-01-19T22:25:54.805Z,96048.83
2019-01-19T22:28:25.307Z,96051.51
2019-01-19T22:30:54.388Z,96051.33
2019-01-19T22:33:26.221Z,96053.52
2019-01-19T22:35:56.738Z,96047.25
2019-01-19T22:38:26.006Z,96049.53
2019-01-19T22:40:55.147Z,96055.11
2019-01-19T22:43:29.663Z,96047.50
2019-01-19T22:45:59.255Z,96051.59
2019-01-19T22:48:28.389Z,96053.63
2019-01-19T22:50:57.583Z,96047.64
2019-01-19T22:53:31.269Z,96040.45
2019-01-19T22:56:00.476Z,96046.01
2019-01-19T22:58:29.678Z,96039.93
2019-01-19T23:01:40.348Z,96046.55
2019-01-19T23:04:14.732Z,96041.02
2019-01-19T23:06:43.832Z,96039.28
2019-01-19T23:09:13.498Z,96037.41
2019-01-19T23:11:42.805Z,96038.67
2019-01-19T23:14:12.735Z,96044.75
2019-01-19T23:16:46.013Z,96039.00
2019-01-19T23:19:15.115Z,96044.93
2019-01-19T23:21:44.228Z,96034.66
2019-01-19T23:24:13.688Z,96027.85
2019-01-19T23:26:43.597Z,96032.75
2019-01-19T23:29:12.826Z,96034.05
2019-01-19T23:31:44.420Z,96028.72
2019-01-19T23:34:15.635Z,96036.15
2019-01-19T23:36:44.648Z,96039.26
2019-01-19T23:39:14.567Z,96032.46
2019-01-19T23:41:44.023Z,96035.12
2019-01-19T23:44:16.001Z,96029.44
2019-01-19T23:46:46.513Z,96035.92
2019-01-19T23:49:21.091Z,96039.84
2019-01-19T23:51:51.310Z,96038.05
2019-01-19T23:54:20.423Z,96031.35
2019-01-19T23:56:53.871Z,96038.45
2019-01-19T23:59:23.020Z,96038.84
